createdAt,value
2023-09-06T00:01:06.074Z,101411.80
2023-09-06T00:03:57.485Z,101404.16
2023-09-06T00:06:45.950Z,101403.22
2023-09-06T00:09:34.406Z,101408.71
2023-09-06T00:12:22.657Z,101408.08
2023-09-06T00:15:11.565Z,101410.65
2023-09-06T00:17:59.861Z,101410.05
2023-09-06T00:20:48.285Z,101408.42
2023-09-06T00:23:36.652Z,101410.25
2023-09-06T00:26:24.915Z,101407.38
2023-09-06T00:29:13.204Z,101410.30
2023-09-06T00:32:01.444Z,101407.58
2023-09-06T00:34:49.976Z,101407.18
2023-09-06T00:37:38.804Z,101412.08
2023-09-06T00:40:27.631Z,101413.36
2023-09-06T00:43:16.633Z,101409.82
2023-09-06T00:46:09.010Z,101411.39
2023-09-06T00:48:57.781Z,101413.54
2023-09-06T00:51:46.235Z,101411.77
2023-09-06T00:54:34.681Z,101408.61
2023-09-06T00:57:22.908Z,101409.21
2023-09-06T01:00:22.870Z,101406.45
2023-09-06T01:03:11.279Z,101402.64
2023-09-06T01:06:10.873Z,101402.90
2023-09-06T01:09:00.084Z,101399.80
2023-09-06T01:11:48.385Z,101402.86
2023-09-06T01:14:39.654Z,101403.58
2023-09-06T01:17:28.448Z,101402.80
2023-09-06T01:20:28.896Z,101402.97
2023-09-06T01:23:35.823Z,101401.55
2023-09-06T01:26:24.060Z,101402.08
2023-09-06T01:29:12.771Z,101408.66
2023-09-06T01:32:02.795Z,101407.09
2023-09-06T01:34:51.350Z,101403.21
2023-09-06T01:37:39.646Z,101403.65
2023-09-06T01:40:28.983Z,101401.55
2023-09-06T01:43:18.577Z,101406.79
2023-09-06T01:46:07.100Z,101408.77
2023-09-06T01:48:55.470Z,101408.13
2023-09-06T01:51:43.874Z,101406.98
2023-09-06T01:54:32.171Z,101410.67
2023-09-06T01:57:20.500Z,101412.07
2023-09-06T02:00:29.189Z,101414.98
2023-09-06T02:03:18.317Z,101411.53
2023-09-06T02:06:06.624Z,101411.00
2023-09-06T02:08:54.972Z,101411.73
2023-09-06T02:11:43.176Z,101412.34
2023-09-06T02:14:31.427Z,101413.48
2023-09-06T02:17:21.717Z,101415.65
2023-09-06T02:20:18.869Z,101419.13
2023-09-06T02:23:07.216Z,101417.30
2023-09-06T02:25:55.592Z,101419.23
2023-09-06T02:28:44.033Z,101419.30
2023-09-06T02:31:34.624Z,101417.86
2023-09-06T02:34:22.867Z,101422.27
2023-09-06T02:37:11.284Z,101423.50
2023-09-06T02:39:59.461Z,101425.83
2023-09-06T02:42:50.223Z,101423.77
2023-09-06T02:45:38.789Z,101431.09
2023-09-06T02:48:28.958Z,101429.79
2023-09-06T02:51:17.565Z,101429.70
2023-09-06T02:54:05.957Z,101429.73
2023-09-06T02:56:54.143Z,101429.83
2023-09-06T02:59:42.490Z,101428.64
2023-09-06T03:02:30.850Z,101432.81
2023-09-06T03:05:19.172Z,101434.08
2023-09-06T03:08:08.748Z,101437.94
2023-09-06T03:10:57.097Z,101441.35
2023-09-06T03:13:46.676Z,101442.55
2023-09-06T03:16:40.475Z,101442.98
2023-09-06T03:19:32.896Z,101444.98
2023-09-06T03:22:23.199Z,101445.69
2023-09-06T03:25:11.448Z,101442.59
2023-09-06T03:28:02.997Z,101443.12
2023-09-06T03:30:53.482Z,101442.34
2023-09-06T03:33:41.837Z,101443.10
2023-09-06T03:36:31.000Z,101440.64
2023-09-06T03:39:42.241Z,101438.96
2023-09-06T03:42:55.042Z,101438.73
2023-09-06T03:46:12.283Z,101445.31
2023-09-06T03:49:30.881Z,101450.55
2023-09-06T03:52:44.009Z,101445.73
2023-09-06T03:56:02.332Z,101450.85
2023-09-06T03:59:18.562Z,101453.10
2023-09-06T04:02:31.728Z,101457.65
2023-09-06T04:05:43.004Z,101463.78
2023-09-06T04:08:58.005Z,101461.87
2023-09-06T04:12:11.432Z,101461.95
2023-09-06T04:15:26.377Z,101460.67
2023-09-06T04:18:40.527Z,101464.56
2023-09-06T04:21:56.449Z,101464.02
2023-09-06T04:25:10.162Z,101463.70
2023-09-06T04:28:25.554Z,101460.45
2023-09-06T04:31:41.450Z,101459.45
2023-09-06T04:34:57.540Z,101459.23
2023-09-06T04:38:08.972Z,101460.35
2023-09-06T04:41:22.032Z,101461.09
2023-09-06T04:44:36.477Z,101455.80
2023-09-06T04:47:52.412Z,101464.67
2023-09-06T04:51:07.067Z,101463.63
2023-09-06T04:54:22.235Z,101463.40
2023-09-06T04:57:35.037Z,101463.55
2023-09-06T05:00:50.526Z,101457.83
2023-09-06T05:04:01.767Z,101467.05
2023-09-06T05:07:16.306Z,101464.48
2023-09-06T05:10:32.513Z,101466.16
2023-09-06T05:13:46.029Z,101472.16
2023-09-06T05:16:59.058Z,101469.30
2023-09-06T05:20:14.550Z,101468.61
2023-09-06T05:23:37.978Z,101467.30
2023-09-06T05:26:52.180Z,101471.05
2023-09-06T05:30:05.918Z,101474.96
2023-09-06T05:33:21.144Z,101478.23
2023-09-06T05:36:36.194Z,101478.96
2023-09-06T05:39:49.187Z,101477.13
2023-09-06T05:43:04.263Z,101475.48
2023-09-06T05:46:32.439Z,101475.98
2023-09-06T05:49:57.570Z,101472.52
2023-09-06T05:53:11.605Z,101468.80
2023-09-06T05:56:27.241Z,101467.95
2023-09-06T05:59:40.335Z,101468.77
2023-09-06T06:02:57.757Z,101469.11
2023-09-06T06:06:11.074Z,101467.27
2023-09-06T06:09:26.552Z,101469.86
2023-09-06T06:12:40.652Z,101471.90
2023-09-06T06:15:56.016Z,101475.06
2023-09-06T06:19:09.377Z,101476.11
2023-09-06T06:22:22.678Z,101475.54
2023-09-06T06:25:36.038Z,101476.19
2023-09-06T06:28:51.907Z,101473.75
2023-09-06T06:32:05.499Z,101475.28
2023-09-06T06:35:20.871Z,101472.98
2023-09-06T06:38:34.395Z,101476.52
2023-09-06T06:41:49.318Z,101477.71
2023-09-06T06:45:00.214Z,101475.05
2023-09-06T06:48:13.031Z,101476.05
2023-09-06T06:51:26.234Z,101478.30
2023-09-06T06:54:41.772Z,101477.88
2023-09-06T06:57:53.333Z,101477.77
2023-09-06T07:01:08.614Z,101475.71
2023-09-06T07:04:22.325Z,101474.06
2023-09-06T07:07:35.257Z,101470.31
2023-09-06T07:10:46.464Z,101471.06
2023-09-06T07:14:02.000Z,101469.48
2023-09-06T07:17:15.610Z,101469.48
2023-09-06T07:20:30.639Z,101470.61
2023-09-06T07:23:48.309Z,101465.58
2023-09-06T07:27:01.498Z,101462.48
2023-09-06T07:30:16.916Z,101461.77
2023-09-06T07:33:23.815Z,101464.48
2023-09-06T07:36:30.619Z,101464.19
2023-09-06T07:39:39.118Z,101460.04
2023-09-06T07:42:47.494Z,101458.80
2023-09-06T07:46:00.665Z,101458.80
2023-09-06T07:49:11.681Z,101461.30
2023-09-06T07:52:24.856Z,101459.82
2023-09-06T07:55:35.513Z,101457.34
2023-09-06T07:58:48.735Z,101456.06
2023-09-06T08:01:56.187Z,101454.20
2023-09-06T08:05:03.102Z,101450.42
2023-09-06T08:08:11.988Z,101447.90
2023-09-06T08:11:20.459Z,101448.02
2023-09-06T08:14:27.224Z,101450.17
2023-09-06T08:18:16.221Z,101449.11
2023-09-06T08:22:10.636Z,101446.73
2023-09-06T08:26:05.143Z,101443.71
2023-09-06T08:29:49.969Z,101442.06
2023-09-06T08:33:35.083Z,101441.80
2023-09-06T08:37:20.404Z,101439.89
2023-09-06T08:41:11.935Z,101438.86
2023-09-06T08:45:05.230Z,101437.32
2023-09-06T08:48:50.235Z,101438.44
2023-09-06T08:52:34.909Z,101437.62
2023-09-06T08:56:19.875Z,101430.02
2023-09-06T09:00:12.724Z,101431.02
2023-09-06T09:04:10.292Z,101425.48
2023-09-06T09:08:00.989Z,101425.41
2023-09-06T09:11:51.154Z,101421.45
2023-09-06T09:15:42.243Z,101419.90
2023-09-06T09:19:33.266Z,101422.05
2023-09-06T09:23:25.630Z,101416.63
2023-09-06T09:27:20.903Z,101415.63
2023-09-06T09:31:12.379Z,101418.54
2023-09-06T09:34:57.224Z,101415.73
2023-09-06T09:38:46.061Z,101419.70
2023-09-06T09:42:45.072Z,101420.01
2023-09-06T09:46:41.337Z,101421.98
2023-09-06T09:50:31.225Z,101415.19
2023-09-06T09:54:16.028Z,101407.77
2023-09-06T09:58:01.894Z,101411.09
2023-09-06T10:01:46.699Z,101412.13
2023-09-06T10:05:40.003Z,101409.23
2023-09-06T10:09:34.852Z,101403.70
2023-09-06T10:13:26.301Z,101404.73
2023-09-06T10:17:25.837Z,101406.48
2023-09-06T10:21:25.681Z,101401.58
2023-09-06T10:25:19.650Z,101402.97
2023-09-06T10:29:11.899Z,101398.73
2023-09-06T10:32:56.950Z,101395.41
2023-09-06T10:36:44.136Z,101397.08
2023-09-06T10:40:32.100Z,101397.20
2023-09-06T10:44:28.786Z,101401.94
2023-09-06T10:48:21.884Z,101398.13
2023-09-06T10:52:14.317Z,101396.41
2023-09-06T10:56:08.308Z,101394.07
2023-09-06T11:00:03.275Z,101387.65
2023-09-06T11:03:48.013Z,101381.77
2023-09-06T11:07:46.810Z,101378.13
2023-09-06T11:11:39.842Z,101374.84
2023-09-06T11:15:31.293Z,101378.11
2023-09-06T11:19:37.024Z,101375.04
2023-09-06T11:23:39.271Z,101378.73
2023-09-06T11:27:41.027Z,101372.17
2023-09-06T11:31:39.274Z,101373.84
2023-09-06T11:35:40.642Z,101370.40
2023-09-06T11:39:38.160Z,101366.61
2023-09-06T11:43:39.200Z,101364.86
2023-09-06T11:47:37.247Z,101369.41
2023-09-06T11:51:41.964Z,101367.13
2023-09-06T11:55:43.281Z,101367.05
2023-09-06T11:59:41.228Z,101352.65
2023-09-06T12:03:42.227Z,101349.09
2023-09-06T12:07:39.181Z,101345.84
2023-09-06T12:11:42.280Z,101343.94
2023-09-06T12:15:40.132Z,101342.73
2023-09-06T12:19:41.184Z,101337.60
2023-09-06T12:23:38.970Z,101333.42
2023-09-06T12:27:40.433Z,101332.92
2023-09-06T12:31:38.499Z,101333.83
2023-09-06T12:35:40.468Z,101331.73
2023-09-06T12:39:38.330Z,101327.98
2023-09-06T12:43:39.977Z,101321.21
2023-09-06T12:47:37.383Z,101318.88
2023-09-06T12:51:38.748Z,101316.61
2023-09-06T12:55:36.189Z,101312.91
2023-09-06T12:59:37.465Z,101305.16
2023-09-06T13:03:35.388Z,101295.08
2023-09-06T13:07:36.638Z,101294.34
2023-09-06T13:11:34.235Z,101290.19
2023-09-06T13:15:35.913Z,101286.81
2023-09-06T13:19:15.646Z,101288.08
2023-09-06T13:22:54.967Z,101282.74
2023-09-06T13:26:32.271Z,101284.08
2023-09-06T13:30:12.188Z,101283.94
2023-09-06T13:33:50.572Z,101283.69
2023-09-06T13:37:29.962Z,101282.21
2023-09-06T13:41:07.314Z,101274.31
2023-09-06T13:44:45.980Z,101270.72
2023-09-06T13:48:23.235Z,101265.37
2023-09-06T13:52:03.932Z,101264.94
2023-09-06T13:55:40.307Z,101265.08
2023-09-06T13:59:21.403Z,101257.33
2023-09-06T14:02:59.748Z,101253.68
2023-09-06T14:06:41.025Z,101255.85
2023-09-06T14:10:19.396Z,101249.25
2023-09-06T14:14:00.022Z,101243.98
2023-09-06T14:17:37.470Z,101242.52
2023-09-06T14:21:18.534Z,101244.60
2023-09-06T14:24:55.506Z,101244.52
2023-09-06T14:28:35.932Z,101238.27
2023-09-06T14:32:12.601Z,101239.79
2023-09-06T14:35:53.671Z,101237.85
2023-09-06T14:39:34.419Z,101243.77
2023-09-06T14:43:11.458Z,101245.63
2023-09-06T14:46:51.829Z,101240.86
2023-09-06T14:50:28.662Z,101238.80
2023-09-06T14:54:09.431Z,101236.98
2023-09-06T14:57:46.647Z,101233.71
2023-09-06T15:01:27.485Z,101237.56
2023-09-06T15:05:04.524Z,101235.27
2023-09-06T15:08:45.046Z,101236.53
2023-09-06T15:12:22.662Z,101233.55
2023-09-06T15:16:03.403Z,101231.13
2023-09-06T15:19:46.462Z,101231.27
2023-09-06T15:23:17.645Z,101230.02
2023-09-06T15:26:50.672Z,101225.91
2023-09-06T15:30:21.322Z,101221.80
2023-09-06T15:33:52.550Z,101222.61
2023-09-06T15:37:24.936Z,101224.96
2023-09-06T15:40:55.592Z,101226.39
2023-09-06T15:44:27.955Z,101229.10
2023-09-06T15:47:58.545Z,101225.33
2023-09-06T15:51:30.964Z,101224.39
2023-09-06T15:55:01.769Z,101226.90
2023-09-06T15:58:34.227Z,101229.36
2023-09-06T16:02:04.591Z,101226.58
2023-09-06T16:05:36.792Z,101228.77
2023-09-06T16:09:07.523Z,101228.77
2023-09-06T16:12:40.024Z,101231.18
2023-09-06T16:16:10.472Z,101233.18
2023-09-06T16:19:43.309Z,101237.89
2023-09-06T16:23:14.574Z,101242.80
2023-09-06T16:26:46.964Z,101243.07
2023-09-06T16:30:17.762Z,101242.52
2023-09-06T16:33:48.188Z,101245.26
2023-09-06T16:37:20.518Z,101243.54
2023-09-06T16:40:51.630Z,101242.92
2023-09-06T16:44:24.080Z,101246.33
2023-09-06T16:47:54.595Z,101244.98
2023-09-06T16:51:24.873Z,101247.79
2023-09-06T16:54:49.124Z,101246.77
2023-09-06T16:58:13.453Z,101249.50
2023-09-06T17:01:37.764Z,101252.65
2023-09-06T17:05:02.184Z,101254.27
2023-09-06T17:08:32.944Z,101256.98
2023-09-06T17:12:04.154Z,101252.95
2023-09-06T17:15:35.383Z,101258.14
2023-09-06T17:19:06.757Z,101260.52
2023-09-06T17:22:39.062Z,101263.34
2023-09-06T17:26:09.797Z,101264.04
2023-09-06T17:29:40.764Z,101267.77
2023-09-06T17:33:11.787Z,101273.73
2023-09-06T17:36:42.532Z,101273.64
2023-09-06T17:40:13.868Z,101272.05
2023-09-06T17:43:50.182Z,101269.91
2023-09-06T17:47:25.274Z,101270.88
2023-09-06T17:51:00.564Z,101271.38
2023-09-06T17:54:31.641Z,101275.13
2023-09-06T17:58:04.272Z,101276.45
2023-09-06T18:01:32.485Z,101276.62
2023-09-06T18:05:07.068Z,101277.52
2023-09-06T18:08:42.108Z,101275.09
2023-09-06T18:12:14.552Z,101274.72
2023-09-06T18:15:44.950Z,101274.79
2023-09-06T18:19:16.944Z,101274.51
2023-09-06T18:22:47.387Z,101275.56
2023-09-06T18:26:18.090Z,101279.34
2023-09-06T18:29:48.495Z,101280.48
2023-09-06T18:33:19.262Z,101281.89
2023-09-06T18:36:43.658Z,101279.72
2023-09-06T18:40:13.821Z,101282.13
2023-09-06T18:43:44.334Z,101282.79
2023-09-06T18:47:15.664Z,101283.25
2023-09-06T18:50:45.972Z,101280.33
2023-09-06T18:54:16.818Z,101282.08
2023-09-06T18:58:03.365Z,101281.14
2023-09-06T19:01:30.377Z,101279.11
2023-09-06T19:04:58.725Z,101277.42
2023-09-06T19:08:30.015Z,101279.17
2023-09-06T19:12:00.905Z,101281.86
2023-09-06T19:15:32.891Z,101280.64
2023-09-06T19:19:10.116Z,101281.46
2023-09-06T19:22:52.646Z,101285.45
2023-09-06T19:26:25.206Z,101282.98
2023-09-06T19:30:01.603Z,101281.77
2023-09-06T19:33:34.161Z,101282.33
2023-09-06T19:37:10.374Z,101283.59
2023-09-06T19:40:42.795Z,101285.82
2023-09-06T19:44:19.184Z,101287.36
2023-09-06T19:47:57.962Z,101291.64
2023-09-06T19:51:40.414Z,101292.23
2023-09-06T19:55:19.818Z,101298.85
2023-09-06T19:58:56.277Z,101298.70
2023-09-06T20:02:38.939Z,101295.34
2023-09-06T20:06:20.008Z,101294.29
2023-09-06T20:09:57.101Z,101298.91
2023-09-06T20:13:41.477Z,101301.84
2023-09-06T20:17:20.727Z,101301.45
2023-09-06T20:20:57.934Z,101299.56
2023-09-06T20:24:34.186Z,101298.54
2023-09-06T20:28:06.454Z,101298.28
2023-09-06T20:31:47.764Z,101299.06
2023-09-06T20:35:25.146Z,101295.80
2023-09-06T20:39:06.250Z,101295.86
2023-09-06T20:42:46.224Z,101294.14
2023-09-06T20:46:27.151Z,101292.98
2023-09-06T20:50:04.122Z,101292.46
2023-09-06T20:53:44.785Z,101293.48
2023-09-06T20:57:22.061Z,101299.17
2023-09-06T21:01:00.863Z,101295.92
2023-09-06T21:04:37.562Z,101299.67
2023-09-06T21:08:18.632Z,101297.83
2023-09-06T21:11:55.089Z,101295.23
2023-09-06T21:15:35.928Z,101296.64
2023-09-06T21:19:13.236Z,101298.21
2023-09-06T21:22:53.740Z,101295.04
2023-09-06T21:26:30.307Z,101300.40
2023-09-06T21:30:11.153Z,101298.96
2023-09-06T21:33:48.111Z,101303.77
2023-09-06T21:37:28.714Z,101300.63
2023-09-06T21:41:06.327Z,101301.84
2023-09-06T21:44:46.811Z,101305.95
2023-09-06T21:48:23.564Z,101302.11
2023-09-06T21:52:04.784Z,101299.59
2023-09-06T21:55:41.235Z,101300.52
2023-09-06T21:59:21.803Z,101298.07
2023-09-06T22:02:58.349Z,101298.20
2023-09-06T22:06:57.768Z,101302.44
2023-09-06T22:10:54.091Z,101302.00
2023-09-06T22:14:50.212Z,101301.93
2023-09-06T22:18:30.816Z,101297.45
2023-09-06T22:22:08.341Z,101295.43
2023-09-06T22:25:48.817Z,101297.59
2023-09-06T22:29:26.198Z,101297.50
2023-09-06T22:33:06.789Z,101295.91
2023-09-06T22:36:43.280Z,101303.71
2023-09-06T22:40:23.779Z,101300.76
2023-09-06T22:44:01.273Z,101299.87
2023-09-06T22:47:42.346Z,101296.27
2023-09-06T22:51:19.241Z,101296.69
2023-09-06T22:55:00.448Z,101295.89
2023-09-06T22:58:37.407Z,101295.16
2023-09-06T23:02:18.189Z,101292.42
2023-09-06T23:05:55.383Z,101291.10
2023-09-06T23:09:35.817Z,101289.16
2023-09-06T23:13:13.282Z,101289.18
2023-09-06T23:16:54.399Z,101288.34
2023-09-06T23:19:26.545Z,101294.39
2023-09-06T23:21:58.493Z,101293.11
2023-09-06T23:24:26.626Z,101298.15
2023-09-06T23:26:59.910Z,101301.08
2023-09-06T23:29:36.129Z,101301.75
2023-09-06T23:32:06.361Z,101302.80
2023-09-06T23:34:35.668Z,101304.63
2023-09-06T23:37:06.609Z,101306.94
2023-09-06T23:39:34.818Z,101308.44
2023-09-06T23:42:11.180Z,101305.34
2023-09-06T23:44:42.404Z,101296.64
2023-09-06T23:47:12.038Z,101297.73
2023-09-06T23:49:40.466Z,101294.27
2023-09-06T23:52:08.241Z,101294.01
2023-09-06T23:54:46.297Z,101300.98
2023-09-06T23:57:19.533Z,101302.80
2023-09-06T23:59:48.060Z,101311.50
